sensor_id;sensor_type;location;lat;lon;timestamp;P1;durP1;ratioP1;P2;durP2;ratioP2
55559;SDS011;41414;53.250;6.514;2022-08-30T00:00:36;3.28;;;2.63;;
55559;SDS011;41414;53.250;6.514;2022-08-30T00:03:21;5.25;;;4.00;;
55559;SDS011;41414;53.250;6.514;2022-08-30T00:05:47;5.00;;;3.92;;
55559;SDS011;41414;53.250;6.514;2022-08-30T00:08:13;2.03;;;1.77;;
55559;SDS011;41414;53.250;6.514;2022-08-30T00:10:40;5.57;;;1.60;;
55559;SDS011;41414;53.250;6.514;2022-08-30T00:13:07;45.15;;;3.63;;
55559;SDS011;41414;53.250;6.514;2022-08-30T00:15:34;9.90;;;1.83;;
55559;SDS011;41414;53.250;6.514;2022-08-30T00:18:00;2.30;;;1.52;;
55559;SDS011;41414;53.250;6.514;2022-08-30T00:20:28;20.73;;;2.17;;
55559;SDS011;41414;53.250;6.514;2022-08-30T00:22:55;4.20;;;1.80;;
55559;SDS011;41414;53.250;6.514;2022-08-30T00:25:21;2.85;;;2.25;;
55559;SDS011;41414;53.250;6.514;2022-08-30T00:27:48;2.88;;;1.88;;
55559;SDS011;41414;53.250;6.514;2022-08-30T00:30:15;2.10;;;1.90;;
55559;SDS011;41414;53.250;6.514;2022-08-30T00:32:42;2.00;;;1.77;;
55559;SDS011;41414;53.250;6.514;2022-08-30T00:35:09;2.15;;;1.70;;
55559;SDS011;41414;53.250;6.514;2022-08-30T00:37:36;1.55;;;1.45;;
55559;SDS011;41414;53.250;6.514;2022-08-30T00:40:03;1.45;;;1.27;;
55559;SDS011;41414;53.250;6.514;2022-08-30T00:42:30;1.50;;;1.33;;
55559;SDS011;41414;53.250;6.514;2022-08-30T00:44:56;3.17;;;1.70;;
55559;SDS011;41414;53.250;6.514;2022-08-30T00:47:23;2.33;;;1.80;;
55559;SDS011;41414;53.250;6.514;2022-08-30T00:49:51;1.35;;;1.05;;
55559;SDS011;41414;53.250;6.514;2022-08-30T00:52:18;2.92;;;1.30;;
55559;SDS011;41414;53.250;6.514;2022-08-30T00:54:46;3.05;;;2.40;;
55559;SDS011;41414;53.250;6.514;2022-08-30T00:57:13;4.80;;;2.83;;
55559;SDS011;41414;53.250;6.514;2022-08-30T00:59:40;5.85;;;4.78;;
55559;SDS011;41414;53.250;6.514;2022-08-30T01:02:08;3.08;;;2.63;;
55559;SDS011;41414;53.250;6.514;2022-08-30T01:04:34;4.38;;;3.55;;
55559;SDS011;41414;53.250;6.514;2022-08-30T01:07:01;5.20;;;3.47;;
55559;SDS011;41414;53.250;6.514;2022-08-30T01:09:27;7.25;;;5.25;;
55559;SDS011;41414;53.250;6.514;2022-08-30T01:11:54;6.97;;;5.88;;
55559;SDS011;41414;53.250;6.514;2022-08-30T01:14:20;9.18;;;6.60;;
55559;SDS011;41414;53.250;6.514;2022-08-30T01:16:47;9.02;;;6.70;;
55559;SDS011;41414;53.250;6.514;2022-08-30T01:19:22;6.43;;;4.22;;
55559;SDS011;41414;53.250;6.514;2022-08-30T01:21:51;6.93;;;5.18;;
55559;SDS011;41414;53.250;6.514;2022-08-30T01:24:19;8.85;;;5.50;;
55559;SDS011;41414;53.250;6.514;2022-08-30T01:26:45;7.00;;;5.25;;
55559;SDS011;41414;53.250;6.514;2022-08-30T01:29:14;8.18;;;6.55;;
55559;SDS011;41414;53.250;6.514;2022-08-30T01:31:41;10.02;;;6.03;;
55559;SDS011;41414;53.250;6.514;2022-08-30T01:34:08;6.78;;;6.05;;
55559;SDS011;41414;53.250;6.514;2022-08-30T01:36:34;7.80;;;6.68;;
55559;SDS011;41414;53.250;6.514;2022-08-30T01:39:02;7.90;;;5.60;;
55559;SDS011;41414;53.250;6.514;2022-08-30T01:41:30;7.80;;;6.32;;
55559;SDS011;41414;53.250;6.514;2022-08-30T01:43:57;7.88;;;5.20;;
55559;SDS011;41414;53.250;6.514;2022-08-30T01:46:25;9.55;;;5.88;;
55559;SDS011;41414;53.250;6.514;2022-08-30T01:48:52;8.75;;;6.38;;
55559;SDS011;41414;53.250;6.514;2022-08-30T01:51:19;9.75;;;6.05;;
55559;SDS011;41414;53.250;6.514;2022-08-30T01:53:45;7.75;;;5.60;;
55559;SDS011;41414;53.250;6.514;2022-08-30T01:56:12;7.55;;;5.78;;
55559;SDS011;41414;53.250;6.514;2022-08-30T01:58:39;8.48;;;5.93;;
55559;SDS011;41414;53.250;6.514;2022-08-30T02:01:07;10.10;;;5.97;;
55559;SDS011;41414;53.250;6.514;2022-08-30T02:03:37;8.52;;;5.35;;
55559;SDS011;41414;53.250;6.514;2022-08-30T02:06:05;9.00;;;5.70;;
55559;SDS011;41414;53.250;6.514;2022-08-30T02:08:32;7.30;;;6.22;;
55559;SDS011;41414;53.250;6.514;2022-08-30T02:10:58;7.90;;;6.35;;
55559;SDS011;41414;53.250;6.514;2022-08-30T02:13:25;10.82;;;6.40;;
55559;SDS011;41414;53.250;6.514;2022-08-30T02:15:51;10.10;;;6.18;;
55559;SDS011;41414;53.250;6.514;2022-08-30T02:18:20;8.90;;;6.10;;
55559;SDS011;41414;53.250;6.514;2022-08-30T02:20:46;8.18;;;6.05;;
55559;SDS011;41414;53.250;6.514;2022-08-30T02:23:12;8.23;;;5.57;;
55559;SDS011;41414;53.250;6.514;2022-08-30T02:25:39;7.47;;;5.65;;
55559;SDS011;41414;53.250;6.514;2022-08-30T02:28:05;7.93;;;5.88;;
55559;SDS011;41414;53.250;6.514;2022-08-30T02:30:32;9.23;;;5.70;;
55559;SDS011;41414;53.250;6.514;2022-08-30T02:32:58;8.27;;;5.63;;
55559;SDS011;41414;53.250;6.514;2022-08-30T02:35:25;6.47;;;5.72;;
55559;SDS011;41414;53.250;6.514;2022-08-30T02:37:51;9.30;;;5.68;;
55559;SDS011;41414;53.250;6.514;2022-08-30T02:40:17;7.50;;;5.28;;
55559;SDS011;41414;53.250;6.514;2022-08-30T02:42:46;8.07;;;6.28;;
55559;SDS011;41414;53.250;6.514;2022-08-30T02:45:12;8.68;;;5.80;;
55559;SDS011;41414;53.250;6.514;2022-08-30T02:47:39;7.28;;;6.13;;
55559;SDS011;41414;53.250;6.514;2022-08-30T02:50:06;7.25;;;5.78;;
55559;SDS011;41414;53.250;6.514;2022-08-30T02:52:33;12.68;;;6.07;;
55559;SDS011;41414;53.250;6.514;2022-08-30T02:54:59;8.45;;;6.25;;
55559;SDS011;41414;53.250;6.514;2022-08-30T02:57:25;11.63;;;6.30;;
55559;SDS011;41414;53.250;6.514;2022-08-30T02:59:52;8.40;;;6.07;;
55559;SDS011;41414;53.250;6.514;2022-08-30T03:02:18;11.20;;;7.45;;
55559;SDS011;41414;53.250;6.514;2022-08-30T03:04:46;9.55;;;6.82;;
55559;SDS011;41414;53.250;6.514;2022-08-30T03:07:13;13.32;;;6.53;;
55559;SDS011;41414;53.250;6.514;2022-08-30T03:09:39;10.68;;;7.05;;
55559;SDS011;41414;53.250;6.514;2022-08-30T03:12:05;12.38;;;7.35;;
55559;SDS011;41414;53.250;6.514;2022-08-30T03:14:32;11.93;;;7.20;;
55559;SDS011;41414;53.250;6.514;2022-08-30T03:17:00;10.50;;;7.00;;
55559;SDS011;41414;53.250;6.514;2022-08-30T03:19:27;11.13;;;7.22;;
55559;SDS011;41414;53.250;6.514;2022-08-30T03:21:53;9.85;;;6.50;;
55559;SDS011;41414;53.250;6.514;2022-08-30T03:24:19;9.95;;;6.55;;
55559;SDS011;41414;53.250;6.514;2022-08-30T03:26:46;11.25;;;7.18;;
55559;SDS011;41414;53.250;6.514;2022-08-30T03:29:12;10.95;;;7.88;;
55559;SDS011;41414;53.250;6.514;2022-08-30T03:31:38;10.15;;;8.55;;
55559;SDS011;41414;53.250;6.514;2022-08-30T03:34:04;10.68;;;7.75;;
55559;SDS011;41414;53.250;6.514;2022-08-30T03:36:31;11.18;;;7.32;;
55559;SDS011;41414;53.250;6.514;2022-08-30T03:38:57;10.85;;;7.30;;
55559;SDS011;41414;53.250;6.514;2022-08-30T03:41:23;9.50;;;6.90;;
55559;SDS011;41414;53.250;6.514;2022-08-30T03:43:49;10.23;;;7.05;;
55559;SDS011;41414;53.250;6.514;2022-08-30T03:46:16;9.65;;;7.15;;
55559;SDS011;41414;53.250;6.514;2022-08-30T03:48:42;10.63;;;6.70;;
55559;SDS011;41414;53.250;6.514;2022-08-30T03:51:08;11.02;;;6.53;;
55559;SDS011;41414;53.250;6.514;2022-08-30T03:53:34;7.93;;;7.03;;
55559;SDS011;41414;53.250;6.514;2022-08-30T03:56:01;11.55;;;7.10;;
55559;SDS011;41414;53.250;6.514;2022-08-30T03:58:27;8.00;;;6.72;;
55559;SDS011;41414;53.250;6.514;2022-08-30T04:00:53;9.75;;;7.07;;
55559;SDS011;41414;53.250;6.514;2022-08-30T04:03:19;9.65;;;6.60;;
55559;SDS011;41414;53.250;6.514;2022-08-30T04:05:50;8.18;;;5.85;;
55559;SDS011;41414;53.250;6.514;2022-08-30T04:08:17;11.20;;;5.97;;
55559;SDS011;41414;53.250;6.514;2022-08-30T04:10:44;9.32;;;6.45;;
55559;SDS011;41414;53.250;6.514;2022-08-30T04:13:12;13.48;;;6.38;;
55559;SDS011;41414;53.250;6.514;2022-08-30T04:15:38;10.63;;;6.90;;
55559;SDS011;41414;53.250;6.514;2022-08-30T04:18:05;9.00;;;7.70;;
55559;SDS011;41414;53.250;6.514;2022-08-30T04:20:31;10.77;;;7.25;;
55559;SDS011;41414;53.250;6.514;2022-08-30T04:22:58;8.18;;;6.50;;
55559;SDS011;41414;53.250;6.514;2022-08-30T04:25:24;11.90;;;7.50;;
55559;SDS011;41414;53.250;6.514;2022-08-30T04:27:50;9.20;;;7.30;;
55559;SDS011;41414;53.250;6.514;2022-08-30T04:30:16;11.52;;;7.47;;
55559;SDS011;41414;53.250;6.514;2022-08-30T04:32:43;10.45;;;7.95;;
55559;SDS011;41414;53.250;6.514;2022-08-30T04:35:09;9.35;;;7.72;;
55559;SDS011;41414;53.250;6.514;2022-08-30T04:37:36;8.65;;;7.75;;
55559;SDS011;41414;53.250;6.514;2022-08-30T04:40:03;10.32;;;7.65;;
55559;SDS011;41414;53.250;6.514;2022-08-30T04:42:30;10.48;;;8.57;;
55559;SDS011;41414;53.250;6.514;2022-08-30T04:44:57;14.40;;;8.45;;
55559;SDS011;41414;53.250;6.514;2022-08-30T04:47:24;11.70;;;8.45;;
55559;SDS011;41414;53.250;6.514;2022-08-30T04:49:51;10.70;;;8.93;;
55559;SDS011;41414;53.250;6.514;2022-08-30T04:52:17;12.80;;;8.32;;
55559;SDS011;41414;53.250;6.514;2022-08-30T04:54:43;11.48;;;8.20;;
55559;SDS011;41414;53.250;6.514;2022-08-30T04:57:09;12.32;;;8.93;;
55559;SDS011;41414;53.250;6.514;2022-08-30T04:59:37;10.73;;;8.82;;
55559;SDS011;41414;53.250;6.514;2022-08-30T05:02:03;9.10;;;7.97;;
55559;SDS011;41414;53.250;6.514;2022-08-30T05:04:30;9.50;;;8.10;;
55559;SDS011;41414;53.250;6.514;2022-08-30T05:06:56;10.68;;;8.35;;
55559;SDS011;41414;53.250;6.514;2022-08-30T05:09:22;12.35;;;9.18;;
55559;SDS011;41414;53.250;6.514;2022-08-30T05:11:48;11.63;;;9.35;;
55559;SDS011;41414;53.250;6.514;2022-08-30T05:14:14;10.90;;;8.75;;
55559;SDS011;41414;53.250;6.514;2022-08-30T05:16:40;10.75;;;8.15;;
55559;SDS011;41414;53.250;6.514;2022-08-30T05:19:07;10.07;;;8.93;;
55559;SDS011;41414;53.250;6.514;2022-08-30T05:21:33;10.02;;;8.32;;
55559;SDS011;41414;53.250;6.514;2022-08-30T05:23:59;9.80;;;8.80;;
55559;SDS011;41414;53.250;6.514;2022-08-30T05:26:26;10.20;;;8.57;;
55559;SDS011;41414;53.250;6.514;2022-08-30T05:28:53;9.70;;;8.48;;
55559;SDS011;41414;53.250;6.514;2022-08-30T05:31:21;8.85;;;7.90;;
55559;SDS011;41414;53.250;6.514;2022-08-30T05:33:48;8.40;;;7.32;;
55559;SDS011;41414;53.250;6.514;2022-08-30T05:36:15;8.18;;;7.38;;
55559;SDS011;41414;53.250;6.514;2022-08-30T05:38:41;9.90;;;8.10;;
55559;SDS011;41414;53.250;6.514;2022-08-30T05:41:08;12.13;;;7.28;;
55559;SDS011;41414;53.250;6.514;2022-08-30T05:43:34;10.73;;;7.13;;
55559;SDS011;41414;53.250;6.514;2022-08-30T05:46:03;9.85;;;7.70;;
55559;SDS011;41414;53.250;6.514;2022-08-30T05:48:30;9.30;;;8.15;;
55559;SDS011;41414;53.250;6.514;2022-08-30T05:51:02;11.15;;;8.10;;
55559;SDS011;41414;53.250;6.514;2022-08-30T05:53:28;9.00;;;8.10;;
55559;SDS011;41414;53.250;6.514;2022-08-30T05:55:54;10.25;;;8.45;;
55559;SDS011;41414;53.250;6.514;2022-08-30T05:58:21;9.65;;;7.30;;
55559;SDS011;41414;53.250;6.514;2022-08-30T06:00:47;13.48;;;7.53;;
55559;SDS011;41414;53.250;6.514;2022-08-30T06:03:13;11.45;;;7.80;;
55559;SDS011;41414;53.250;6.514;2022-08-30T06:05:39;8.55;;;7.18;;
55559;SDS011;41414;53.250;6.514;2022-08-30T06:08:05;8.88;;;7.45;;
55559;SDS011;41414;53.250;6.514;2022-08-30T06:10:31;10.07;;;7.72;;
55559;SDS011;41414;53.250;6.514;2022-08-30T06:12:57;9.07;;;7.82;;
55559;SDS011;41414;53.250;6.514;2022-08-30T06:15:24;8.10;;;6.90;;
55559;SDS011;41414;53.250;6.514;2022-08-30T06:17:50;11.93;;;7.05;;
55559;SDS011;41414;53.250;6.514;2022-08-30T06:20:16;8.70;;;6.82;;
55559;SDS011;41414;53.250;6.514;2022-08-30T06:22:44;11.10;;;6.63;;
55559;SDS011;41414;53.250;6.514;2022-08-30T06:25:11;8.70;;;7.10;;
55559;SDS011;41414;53.250;6.514;2022-08-30T06:27:37;7.75;;;6.95;;
55559;SDS011;41414;53.250;6.514;2022-08-30T06:30:04;7.55;;;6.65;;
55559;SDS011;41414;53.250;6.514;2022-08-30T06:32:33;10.70;;;7.28;;
55559;SDS011;41414;53.250;6.514;2022-08-30T06:34:59;9.00;;;6.10;;
55559;SDS011;41414;53.250;6.514;2022-08-30T06:37:25;10.00;;;7.32;;
55559;SDS011;41414;53.250;6.514;2022-08-30T06:39:52;8.77;;;6.95;;
55559;SDS011;41414;53.250;6.514;2022-08-30T06:42:18;8.07;;;6.05;;
55559;SDS011;41414;53.250;6.514;2022-08-30T06:44:44;6.80;;;5.72;;
55559;SDS011;41414;53.250;6.514;2022-08-30T06:47:10;7.07;;;5.38;;
55559;SDS011;41414;53.250;6.514;2022-08-30T06:49:37;5.85;;;4.32;;
55559;SDS011;41414;53.250;6.514;2022-08-30T06:52:03;7.55;;;4.68;;
55559;SDS011;41414;53.250;6.514;2022-08-30T06:54:29;9.90;;;4.72;;
55559;SDS011;41414;53.250;6.514;2022-08-30T06:56:55;7.43;;;4.15;;
55559;SDS011;41414;53.250;6.514;2022-08-30T06:59:21;6.82;;;3.90;;
55559;SDS011;41414;53.250;6.514;2022-08-30T07:01:47;6.03;;;3.80;;
55559;SDS011;41414;53.250;6.514;2022-08-30T07:04:14;6.22;;;3.30;;
55559;SDS011;41414;53.250;6.514;2022-08-30T07:06:40;5.88;;;2.95;;
55559;SDS011;41414;53.250;6.514;2022-08-30T07:09:06;4.70;;;2.33;;
55559;SDS011;41414;53.250;6.514;2022-08-30T07:11:33;5.82;;;3.00;;
55559;SDS011;41414;53.250;6.514;2022-08-30T07:14:00;8.32;;;2.97;;
55559;SDS011;41414;53.250;6.514;2022-08-30T07:16:26;6.38;;;3.25;;
55559;SDS011;41414;53.250;6.514;2022-08-30T07:18:53;4.72;;;2.25;;
55559;SDS011;41414;53.250;6.514;2022-08-30T07:21:20;6.78;;;2.65;;
55559;SDS011;41414;53.250;6.514;2022-08-30T07:23:47;4.68;;;2.25;;
55559;SDS011;41414;53.250;6.514;2022-08-30T07:26:14;6.30;;;2.38;;
55559;SDS011;41414;53.250;6.514;2022-08-30T07:28:41;6.47;;;2.38;;
55559;SDS011;41414;53.250;6.514;2022-08-30T07:31:08;2.75;;;1.77;;
55559;SDS011;41414;53.250;6.514;2022-08-30T07:33:34;5.45;;;2.20;;
55559;SDS011;41414;53.250;6.514;2022-08-30T07:36:00;5.43;;;1.75;;
55559;SDS011;41414;53.250;6.514;2022-08-30T07:38:29;2.70;;;1.60;;
55559;SDS011;41414;53.250;6.514;2022-08-30T07:40:55;3.30;;;1.42;;
55559;SDS011;41414;53.250;6.514;2022-08-30T07:43:26;4.47;;;2.00;;
55559;SDS011;41414;53.250;6.514;2022-08-30T07:45:52;3.75;;;1.50;;
55559;SDS011;41414;53.250;6.514;2022-08-30T07:48:18;3.05;;;1.83;;
55559;SDS011;41414;53.250;6.514;2022-08-30T07:50:45;2.60;;;1.60;;
55559;SDS011;41414;53.250;6.514;2022-08-30T07:53:11;4.13;;;1.50;;
55559;SDS011;41414;53.250;6.514;2022-08-30T07:55:38;5.82;;;1.73;;
55559;SDS011;41414;53.250;6.514;2022-08-30T07:58:04;3.00;;;1.80;;
55559;SDS011;41414;53.250;6.514;2022-08-30T08:00:31;3.67;;;1.83;;
55559;SDS011;41414;53.250;6.514;2022-08-30T08:02:57;2.78;;;1.42;;
55559;SDS011;41414;53.250;6.514;2022-08-30T08:05:23;2.47;;;1.33;;
55559;SDS011;41414;53.250;6.514;2022-08-30T08:07:49;3.92;;;1.55;;
55559;SDS011;41414;53.250;6.514;2022-08-30T08:10:15;3.63;;;1.50;;
55559;SDS011;41414;53.250;6.514;2022-08-30T08:12:43;2.47;;;1.10;;
55559;SDS011;41414;53.250;6.514;2022-08-30T08:15:09;5.45;;;1.70;;
55559;SDS011;41414;53.250;6.514;2022-08-30T08:17:35;2.05;;;1.20;;
55559;SDS011;41414;53.250;6.514;2022-08-30T08:20:02;4.97;;;1.40;;
55559;SDS011;41414;53.250;6.514;2022-08-30T08:22:28;4.40;;;1.52;;
55559;SDS011;41414;53.250;6.514;2022-08-30T08:24:54;3.85;;;1.50;;
55559;SDS011;41414;53.250;6.514;2022-08-30T08:27:21;3.17;;;1.67;;
55559;SDS011;41414;53.250;6.514;2022-08-30T08:29:48;2.42;;;1.48;;
55559;SDS011;41414;53.250;6.514;2022-08-30T08:32:15;2.97;;;1.50;;
55559;SDS011;41414;53.250;6.514;2022-08-30T08:34:41;2.30;;;1.50;;
55559;SDS011;41414;53.250;6.514;2022-08-30T08:37:07;7.80;;;1.50;;
55559;SDS011;41414;53.250;6.514;2022-08-30T08:39:33;3.55;;;1.30;;
55559;SDS011;41414;53.250;6.514;2022-08-30T08:42:12;4.78;;;1.10;;
55559;SDS011;41414;53.250;6.514;2022-08-30T08:49:55;3.90;;;1.88;;
55559;SDS011;41414;53.250;6.514;2022-08-30T08:52:23;2.67;;;1.65;;
55559;SDS011;41414;53.250;6.514;2022-08-30T08:55:22;4.07;;;1.40;;
55559;SDS011;41414;53.250;6.514;2022-08-30T08:57:49;3.88;;;1.70;;
55559;SDS011;41414;53.250;6.514;2022-08-30T09:00:16;4.75;;;1.48;;
55559;SDS011;41414;53.250;6.514;2022-08-30T09:02:47;2.60;;;1.33;;
55559;SDS011;41414;53.250;6.514;2022-08-30T09:05:19;4.22;;;1.63;;
55559;SDS011;41414;53.250;6.514;2022-08-30T09:07:48;2.42;;;1.75;;
55559;SDS011;41414;53.250;6.514;2022-08-30T09:10:16;2.58;;;1.20;;
55559;SDS011;41414;53.250;6.514;2022-08-30T09:12:42;4.40;;;2.08;;
55559;SDS011;41414;53.250;6.514;2022-08-30T09:15:23;3.50;;;1.63;;
55559;SDS011;41414;53.250;6.514;2022-08-30T09:17:51;2.75;;;1.55;;
55559;SDS011;41414;53.250;6.514;2022-08-30T09:20:22;2.40;;;1.40;;
55559;SDS011;41414;53.250;6.514;2022-08-30T09:22:49;2.25;;;1.20;;
55559;SDS011;41414;53.250;6.514;2022-08-30T09:25:21;1.77;;;1.20;;
55559;SDS011;41414;53.250;6.514;2022-08-30T09:27:48;3.30;;;1.65;;
55559;SDS011;41414;53.250;6.514;2022-08-30T09:30:17;3.92;;;1.30;;
55559;SDS011;41414;53.250;6.514;2022-08-30T09:32:51;5.53;;;1.30;;
55559;SDS011;41414;53.250;6.514;2022-08-30T09:35:19;1.83;;;1.20;;
55559;SDS011;41414;53.250;6.514;2022-08-30T09:37:50;3.75;;;1.40;;
55559;SDS011;41414;53.250;6.514;2022-08-30T09:40:21;3.25;;;1.23;;
55559;SDS011;41414;53.250;6.514;2022-08-30T09:42:59;3.80;;;1.33;;
55559;SDS011;41414;53.250;6.514;2022-08-30T09:45:28;2.55;;;1.55;;
55559;SDS011;41414;53.250;6.514;2022-08-30T09:47:56;2.83;;;1.52;;
55559;SDS011;41414;53.250;6.514;2022-08-30T09:50:22;2.35;;;1.35;;
55559;SDS011;41414;53.250;6.514;2022-08-30T09:52:55;3.53;;;1.60;;
55559;SDS011;41414;53.250;6.514;2022-08-30T09:55:36;3.30;;;1.23;;
55559;SDS011;41414;53.250;6.514;2022-08-30T09:58:22;3.20;;;1.08;;
55559;SDS011;41414;53.250;6.514;2022-08-30T10:00:56;3.78;;;1.40;;
55559;SDS011;41414;53.250;6.514;2022-08-30T10:03:26;4.35;;;1.40;;
55559;SDS011;41414;53.250;6.514;2022-08-30T10:06:01;4.45;;;1.60;;
55559;SDS011;41414;53.250;6.514;2022-08-30T10:08:33;2.55;;;1.33;;
55559;SDS011;41414;53.250;6.514;2022-08-30T10:11:01;2.35;;;1.20;;
55559;SDS011;41414;53.250;6.514;2022-08-30T10:13:35;2.80;;;1.40;;
55559;SDS011;41414;53.250;6.514;2022-08-30T10:18:44;5.47;;;1.20;;
55559;SDS011;41414;53.250;6.514;2022-08-30T10:21:15;4.00;;;1.33;;
55559;SDS011;41414;53.250;6.514;2022-08-30T10:23:44;2.65;;;1.17;;
55559;SDS011;41414;53.250;6.514;2022-08-30T10:26:16;2.65;;;1.30;;
55559;SDS011;41414;53.250;6.514;2022-08-30T10:28:50;4.88;;;1.63;;
55559;SDS011;41414;53.250;6.514;2022-08-30T10:33:47;3.13;;;1.10;;
55559;SDS011;41414;53.250;6.514;2022-08-30T10:36:16;3.97;;;1.33;;
55559;SDS011;41414;53.250;6.514;2022-08-30T10:38:45;2.25;;;1.00;;
55559;SDS011;41414;53.250;6.514;2022-08-30T10:41:23;2.03;;;1.13;;
55559;SDS011;41414;53.250;6.514;2022-08-30T10:43:53;1.55;;;0.88;;
55559;SDS011;41414;53.250;6.514;2022-08-30T10:46:24;1.85;;;1.00;;
55559;SDS011;41414;53.250;6.514;2022-08-30T10:48:53;3.00;;;1.27;;
55559;SDS011;41414;53.250;6.514;2022-08-30T10:53:56;2.45;;;1.27;;
55559;SDS011;41414;53.250;6.514;2022-08-30T10:56:25;2.10;;;1.20;;
55559;SDS011;41414;53.250;6.514;2022-08-30T10:58:53;2.33;;;1.25;;
55559;SDS011;41414;53.250;6.514;2022-08-30T11:01:25;2.97;;;1.20;;
55559;SDS011;41414;53.250;6.514;2022-08-30T11:14:00;3.15;;;1.08;;
55559;SDS011;41414;53.250;6.514;2022-08-30T11:16:36;3.80;;;1.05;;
55559;SDS011;41414;53.250;6.514;2022-08-30T11:19:11;3.83;;;1.38;;
55559;SDS011;41414;53.250;6.514;2022-08-30T11:21:39;2.88;;;1.33;;
55559;SDS011;41414;53.250;6.514;2022-08-30T11:24:14;2.85;;;1.38;;
55559;SDS011;41414;53.250;6.514;2022-08-30T11:29:32;3.05;;;1.60;;
55559;SDS011;41414;53.250;6.514;2022-08-30T11:32:01;3.13;;;1.00;;
55559;SDS011;41414;53.250;6.514;2022-08-30T11:37:36;4.53;;;1.20;;
55559;SDS011;41414;53.250;6.514;2022-08-30T11:40:04;2.05;;;1.17;;
55559;SDS011;41414;53.250;6.514;2022-08-30T11:42:38;2.78;;;1.10;;
55559;SDS011;41414;53.250;6.514;2022-08-30T11:47:52;4.20;;;1.50;;
55559;SDS011;41414;53.250;6.514;2022-08-30T11:50:19;4.05;;;1.40;;
55559;SDS011;41414;53.250;6.514;2022-08-30T11:52:49;4.15;;;1.75;;
55559;SDS011;41414;53.250;6.514;2022-08-30T11:58:18;1.98;;;0.90;;
55559;SDS011;41414;53.250;6.514;2022-08-30T12:00:51;2.53;;;1.00;;
55559;SDS011;41414;53.250;6.514;2022-08-30T12:03:35;4.60;;;1.08;;
55559;SDS011;41414;53.250;6.514;2022-08-30T12:06:02;4.55;;;1.20;;
55559;SDS011;41414;53.250;6.514;2022-08-30T12:11:05;3.85;;;0.93;;
55559;SDS011;41414;53.250;6.514;2022-08-30T12:16:07;2.63;;;1.08;;
55559;SDS011;41414;53.250;6.514;2022-08-30T12:18:41;7.25;;;1.38;;
55559;SDS011;41414;53.250;6.514;2022-08-30T12:23:59;3.53;;;1.20;;
55559;SDS011;41414;53.250;6.514;2022-08-30T12:29:08;2.95;;;1.55;;
55559;SDS011;41414;53.250;6.514;2022-08-30T12:31:39;4.95;;;1.33;;
55559;SDS011;41414;53.250;6.514;2022-08-30T12:34:06;4.47;;;1.33;;
55559;SDS011;41414;53.250;6.514;2022-08-30T12:36:34;2.80;;;1.15;;
55559;SDS011;41414;53.250;6.514;2022-08-30T12:39:04;10.18;;;1.45;;
55559;SDS011;41414;53.250;6.514;2022-08-30T12:41:30;3.30;;;1.33;;
55559;SDS011;41414;53.250;6.514;2022-08-30T12:43:56;9.68;;;1.30;;
55559;SDS011;41414;53.250;6.514;2022-08-30T12:46:23;3.38;;;1.55;;
55559;SDS011;41414;53.250;6.514;2022-08-30T12:48:49;7.97;;;1.83;;
55559;SDS011;41414;53.250;6.514;2022-08-30T12:51:25;3.60;;;1.60;;
55559;SDS011;41414;53.250;6.514;2022-08-30T12:53:52;3.03;;;1.60;;
55559;SDS011;41414;53.250;6.514;2022-08-30T12:56:19;2.78;;;1.30;;
55559;SDS011;41414;53.250;6.514;2022-08-30T12:58:48;2.67;;;1.27;;
55559;SDS011;41414;53.250;6.514;2022-08-30T13:01:17;3.67;;;1.60;;
55559;SDS011;41414;53.250;6.514;2022-08-30T13:06:39;2.28;;;1.30;;
55559;SDS011;41414;53.250;6.514;2022-08-30T13:09:07;2.22;;;1.30;;
55559;SDS011;41414;53.250;6.514;2022-08-30T13:11:34;4.47;;;1.60;;
55559;SDS011;41414;53.250;6.514;2022-08-30T13:16:46;6.55;;;1.80;;
55559;SDS011;41414;53.250;6.514;2022-08-30T13:21:57;3.30;;;1.35;;
55559;SDS011;41414;53.250;6.514;2022-08-30T13:24:24;3.00;;;1.38;;
55559;SDS011;41414;53.250;6.514;2022-08-30T13:26:50;4.07;;;1.65;;
55559;SDS011;41414;53.250;6.514;2022-08-30T13:29:18;2.55;;;1.35;;
55559;SDS011;41414;53.250;6.514;2022-08-30T13:31:45;4.88;;;1.65;;
55559;SDS011;41414;53.250;6.514;2022-08-30T13:34:11;2.50;;;1.25;;
55559;SDS011;41414;53.250;6.514;2022-08-30T13:36:42;3.20;;;1.40;;
55559;SDS011;41414;53.250;6.514;2022-08-30T13:39:10;4.50;;;1.42;;
55559;SDS011;41414;53.250;6.514;2022-08-30T13:41:36;3.75;;;1.50;;
55559;SDS011;41414;53.250;6.514;2022-08-30T13:44:03;3.72;;;1.42;;
55559;SDS011;41414;53.250;6.514;2022-08-30T13:46:30;3.75;;;1.70;;
55559;SDS011;41414;53.250;6.514;2022-08-30T13:48:57;2.55;;;1.08;;
55559;SDS011;41414;53.250;6.514;2022-08-30T13:51:25;3.33;;;1.35;;
55559;SDS011;41414;53.250;6.514;2022-08-30T13:53:51;5.05;;;1.30;;
55559;SDS011;41414;53.250;6.514;2022-08-30T13:56:17;3.70;;;1.65;;
55559;SDS011;41414;53.250;6.514;2022-08-30T13:58:43;3.92;;;1.67;;
55559;SDS011;41414;53.250;6.514;2022-08-30T14:01:10;4.22;;;1.88;;
55559;SDS011;41414;53.250;6.514;2022-08-30T14:03:36;3.70;;;1.73;;
55559;SDS011;41414;53.250;6.514;2022-08-30T14:06:02;3.17;;;1.65;;
55559;SDS011;41414;53.250;6.514;2022-08-30T14:08:29;1.88;;;1.15;;
55559;SDS011;41414;53.250;6.514;2022-08-30T14:10:56;3.08;;;1.48;;
55559;SDS011;41414;53.250;6.514;2022-08-30T14:13:23;3.15;;;1.35;;
55559;SDS011;41414;53.250;6.514;2022-08-30T14:15:50;5.25;;;1.70;;
55559;SDS011;41414;53.250;6.514;2022-08-30T14:18:16;4.55;;;1.45;;
55559;SDS011;41414;53.250;6.514;2022-08-30T14:20:42;2.92;;;1.63;;
55559;SDS011;41414;53.250;6.514;2022-08-30T14:23:09;3.05;;;1.38;;
55559;SDS011;41414;53.250;6.514;2022-08-30T14:25:35;3.78;;;1.35;;
55559;SDS011;41414;53.250;6.514;2022-08-30T14:28:01;4.63;;;1.20;;
55559;SDS011;41414;53.250;6.514;2022-08-30T14:30:27;4.20;;;1.67;;
55559;SDS011;41414;53.250;6.514;2022-08-30T14:32:53;2.85;;;1.50;;
55559;SDS011;41414;53.250;6.514;2022-08-30T14:35:20;15.10;;;1.80;;
55559;SDS011;41414;53.250;6.514;2022-08-30T14:37:47;4.47;;;1.40;;
55559;SDS011;41414;53.250;6.514;2022-08-30T14:40:13;4.00;;;1.52;;
55559;SDS011;41414;53.250;6.514;2022-08-30T14:42:41;2.60;;;1.70;;
55559;SDS011;41414;53.250;6.514;2022-08-30T14:45:08;2.78;;;1.20;;
55559;SDS011;41414;53.250;6.514;2022-08-30T14:47:34;6.30;;;1.50;;
55559;SDS011;41414;53.250;6.514;2022-08-30T14:50:01;6.22;;;2.90;;
55559;SDS011;41414;53.250;6.514;2022-08-30T14:52:28;2.75;;;1.60;;
55559;SDS011;41414;53.250;6.514;2022-08-30T14:54:54;2.25;;;1.33;;
55559;SDS011;41414;53.250;6.514;2022-08-30T14:57:20;2.75;;;1.63;;
55559;SDS011;41414;53.250;6.514;2022-08-30T14:59:46;4.78;;;1.40;;
55559;SDS011;41414;53.250;6.514;2022-08-30T15:02:12;4.25;;;1.70;;
55559;SDS011;41414;53.250;6.514;2022-08-30T15:04:39;3.45;;;1.58;;
55559;SDS011;41414;53.250;6.514;2022-08-30T15:07:05;3.47;;;1.63;;
55559;SDS011;41414;53.250;6.514;2022-08-30T15:09:31;3.63;;;1.63;;
55559;SDS011;41414;53.250;6.514;2022-08-30T15:11:57;2.30;;;1.23;;
55559;SDS011;41414;53.250;6.514;2022-08-30T15:14:25;2.40;;;1.42;;
55559;SDS011;41414;53.250;6.514;2022-08-30T15:16:52;2.88;;;1.60;;
55559;SDS011;41414;53.250;6.514;2022-08-30T15:19:18;3.03;;;1.20;;
55559;SDS011;41414;53.250;6.514;2022-08-30T15:21:45;3.55;;;1.80;;
55559;SDS011;41414;53.250;6.514;2022-08-30T15:24:14;2.65;;;1.33;;
55559;SDS011;41414;53.250;6.514;2022-08-30T15:26:40;2.80;;;1.50;;
55559;SDS011;41414;53.250;6.514;2022-08-30T15:29:09;3.47;;;1.52;;
55559;SDS011;41414;53.250;6.514;2022-08-30T15:31:36;5.03;;;1.63;;
55559;SDS011;41414;53.250;6.514;2022-08-30T15:34:05;6.70;;;1.70;;
55559;SDS011;41414;53.250;6.514;2022-08-30T15:36:31;2.45;;;1.55;;
55559;SDS011;41414;53.250;6.514;2022-08-30T15:38:57;3.20;;;1.70;;
55559;SDS011;41414;53.250;6.514;2022-08-30T15:41:25;6.47;;;1.67;;